Time;durP1;ratioP1;P1;durP2;ratioP2;P2;SDS_P1;SDS_P2;PMS_P1;PMS_P2;Temp;Humidity;BMP_temperature;BMP_pressure;BME280_temperature;BME280_humidity;BME280_pressure;Samples;Min_cycle;Max_cycle;Signal;HPM_P1;HPM_P2
2023/03/05 00:01:44;;;;;;;13.97;12.67;;;4.90;99.90;;;;;;5096038;28;20459;-73
2023/03/05 00:04:13;;;;;;;12.53;11.40;;;4.90;99.90;;;;;;5094226;28;20462;-71
2023/03/05 00:06:40;;;;;;;12.40;11.20;;;5.00;99.90;;;;;;5099105;28;20890;-72
2023/03/05 00:09:07;;;;;;;12.90;11.60;;;4.90;99.90;;;;;;5092678;28;20469;-73
2023/03/05 00:11:34;;;;;;;15.27;12.00;;;5.00;99.90;;;;;;5091194;28;21023;-71
2023/03/05 00:14:03;;;;;;;14.47;11.97;;;5.00;99.90;;;;;;5094344;28;20461;-73
2023/03/05 00:16:33;;;;;;;16.13;11.87;;;4.90;99.90;;;;;;5087985;28;20510;-71
2023/03/05 00:19:00;;;;;;;11.67;10.87;;;4.80;99.90;;;;;;5084412;28;20485;-72
2023/03/05 00:21:29;;;;;;;11.77;10.80;;;4.80;99.90;;;;;;5093323;28;20505;-72
2023/03/05 00:23:59;;;;;;;11.80;11.20;;;4.70;99.90;;;;;;5099539;28;20462;-73
2023/03/05 00:26:27;;;;;;;11.57;10.43;;;4.60;99.90;;;;;;5091695;28;20481;-73
2023/03/05 00:28:56;;;;;;;13.47;11.67;;;4.60;99.90;;;;;;5088847;28;20466;-70
2023/03/05 00:31:24;;;;;;;12.77;10.93;;;4.60;99.90;;;;;;5090654;28;20552;-72
2023/03/05 00:33:54;;;;;;;11.73;10.83;;;4.60;99.90;;;;;;5091673;28;20467;-71
2023/03/05 00:36:22;;;;;;;11.17;10.47;;;4.50;99.90;;;;;;5090316;28;20462;-72
2023/03/05 00:38:49;;;;;;;12.03;11.10;;;4.40;99.90;;;;;;5093034;28;20458;-73
2023/03/05 00:41:16;;;;;;;12.17;11.17;;;4.40;99.90;;;;;;5091819;28;21195;-71
2023/03/05 00:43:42;;;;;;;11.93;10.80;;;4.40;99.90;;;;;;5090441;28;20522;-73
2023/03/05 00:46:09;;;;;;;11.37;10.47;;;4.30;99.90;;;;;;5087637;28;21067;-72
2023/03/05 00:48:36;;;;;;;11.40;10.53;;;4.20;99.90;;;;;;5096409;28;20455;-73
2023/03/05 00:51:05;;;;;;;14.87;11.27;;;4.20;99.90;;;;;;5097942;28;20738;-72
2023/03/05 00:53:32;;;;;;;11.33;10.73;;;4.20;99.90;;;;;;5098755;28;20469;-73
2023/03/05 00:55:59;;;;;;;12.57;11.40;;;4.20;99.90;;;;;;5093111;28;20467;-72
2023/03/05 00:58:26;;;;;;;11.83;10.70;;;4.20;99.90;;;;;;5096165;28;21266;-73
2023/03/05 01:00:57;;;;;;;12.60;11.53;;;4.30;99.90;;;;;;5098937;28;20543;-71
2023/03/05 01:03:24;;;;;;;12.00;10.73;;;4.30;99.90;;;;;;5091862;28;20494;-73
2023/03/05 01:05:51;;;;;;;11.90;11.10;;;4.40;99.90;;;;;;5095508;28;20457;-73
2023/03/05 01:08:19;;;;;;;13.07;11.87;;;4.50;99.90;;;;;;5094809;28;20466;-72
2023/03/05 01:10:47;;;;;;;11.50;10.63;;;4.40;99.90;;;;;;5093262;28;20496;-72
2023/03/05 01:13:14;;;;;;;11.87;10.93;;;4.50;99.90;;;;;;5088038;28;20462;-72
2023/03/05 01:15:41;;;;;;;12.20;11.10;;;4.50;99.90;;;;;;5089657;28;22241;-72
2023/03/05 01:18:08;;;;;;;14.83;11.47;;;4.50;99.90;;;;;;5093777;28;20813;-72
2023/03/05 01:20:35;;;;;;;11.87;10.97;;;4.50;99.90;;;;;;5092466;28;20548;-71
2023/03/05 01:23:03;;;;;;;12.80;11.23;;;4.60;99.90;;;;;;5090567;28;20966;-71
2023/03/05 01:25:31;;;;;;;11.90;11.00;;;4.60;99.90;;;;;;5093431;28;20974;-73
2023/03/05 01:27:58;;;;;;;11.83;10.93;;;4.60;99.90;;;;;;5091832;28;20484;-73
2023/03/05 01:30:25;;;;;;;11.23;10.30;;;4.50;99.90;;;;;;5093463;28;20457;-73
2023/03/05 01:32:51;;;;;;;12.10;11.20;;;4.50;99.90;;;;;;5093992;28;20494;-73
2023/03/05 01:35:21;;;;;;;12.00;11.07;;;4.50;99.90;;;;;;5088244;28;20526;-71
2023/03/05 01:37:48;;;;;;;11.63;10.60;;;4.50;99.90;;;;;;5096004;28;20964;-71
2023/03/05 01:40:18;;;;;;;19.00;11.30;;;4.50;99.90;;;;;;5091358;28;20876;-73
2023/03/05 01:42:49;;;;;;;11.90;10.70;;;4.40;99.90;;;;;;5096793;28;20477;-72
2023/03/05 01:45:18;;;;;;;12.27;10.93;;;4.50;99.90;;;;;;5094513;28;21030;-73
2023/03/05 01:47:46;;;;;;;13.37;9.27;;;4.40;99.90;;;;;;5089529;28;20993;-71
2023/03/05 01:50:18;;;;;;;11.43;10.40;;;4.50;99.90;;;;;;5091233;28;20950;-72
2023/03/05 01:52:49;;;;;;;12.47;10.47;;;4.50;99.90;;;;;;5096647;28;20934;-70
2023/03/05 01:55:19;;;;;;;16.80;10.03;;;4.50;99.90;;;;;;5095360;28;20483;-72
2023/03/05 01:57:52;;;;;;;11.13;10.27;;;4.40;99.90;;;;;;5097861;28;20462;-73
2023/03/05 02:00:25;;;;;;;12.63;9.33;;;4.40;99.90;;;;;;5094836;28;20976;-71
2023/03/05 02:02:52;;;;;;;15.53;10.00;;;4.40;99.90;;;;;;5087076;28;20467;-74
2023/03/05 02:05:25;;;;;;;15.87;9.87;;;4.30;99.90;;;;;;5089553;28;20457;-71
2023/03/05 02:07:53;;;;;;;10.30;9.50;;;4.40;99.90;;;;;;5092721;28;20487;-71
2023/03/05 02:10:23;;;;;;;11.00;10.00;;;4.40;99.90;;;;;;5086241;28;20919;-71
2023/03/05 02:12:54;;;;;;;14.37;10.20;;;4.40;99.90;;;;;;5094653;28;20454;-72
2023/03/05 02:15:22;;;;;;;10.00;9.30;;;4.50;99.90;;;;;;5092338;28;20463;-73
2023/03/05 02:17:49;;;;;;;10.40;9.40;;;4.40;99.90;;;;;;5091620;28;20476;-71
2023/03/05 02:20:18;;;;;;;10.07;9.40;;;4.50;99.90;;;;;;5089790;28;20876;-70
2023/03/05 02:22:47;;;;;;;11.30;9.80;;;4.50;99.90;;;;;;5087587;28;20477;-70
2023/03/05 02:25:17;;;;;;;12.17;10.30;;;4.50;99.90;;;;;;5091403;28;20471;-71
2023/03/05 02:27:51;;;;;;;18.50;11.30;;;4.40;99.90;;;;;;5088752;28;20515;-73
2023/03/05 02:30:19;;;;;;;10.93;9.80;;;4.40;99.90;;;;;;5094258;28;20465;-70
2023/03/05 02:32:45;;;;;;;11.37;9.73;;;4.40;99.90;;;;;;5090845;28;20462;-73
2023/03/05 02:35:12;;;;;;;10.80;9.70;;;4.30;99.90;;;;;;5084002;28;21017;-72
2023/03/05 02:37:39;;;;;;;9.63;9.13;;;4.30;99.90;;;;;;5096736;28;20816;-72
2023/03/05 02:40:09;;;;;;;11.63;9.50;;;4.30;99.90;;;;;;5096974;28;20455;-72
2023/03/05 02:42:36;;;;;;;10.77;9.70;;;4.30;99.90;;;;;;5091657;28;20999;-71
2023/03/05 02:45:05;;;;;;;11.30;10.20;;;4.40;99.90;;;;;;5089944;28;20556;-72
2023/03/05 02:47:32;;;;;;;14.80;10.33;;;4.40;99.90;;;;;;5085982;28;20493;-71
2023/03/05 02:49:59;;;;;;;12.63;10.10;;;4.40;99.90;;;;;;5088272;28;20989;-70
2023/03/05 02:52:27;;;;;;;11.37;9.70;;;4.40;99.90;;;;;;5085689;28;20460;-72
2023/03/05 02:54:54;;;;;;;11.00;10.00;;;4.30;99.90;;;;;;5091957;28;20468;-73
2023/03/05 02:57:22;;;;;;;10.70;9.90;;;4.30;99.90;;;;;;5086616;28;20497;-71
2023/03/05 02:59:49;;;;;;;10.53;9.67;;;4.40;99.90;;;;;;5089280;28;20465;-71
2023/03/05 03:02:16;;;;;;;10.93;9.70;;;4.30;99.90;;;;;;5086106;28;20944;-71
2023/03/05 03:04:43;;;;;;;10.17;9.17;;;4.10;99.90;;;;;;5097125;28;20470;-71
2023/03/05 03:07:11;;;;;;;16.90;10.47;;;4.00;99.90;;;;;;5094844;28;20480;-71
2023/03/05 03:09:38;;;;;;;10.80;9.97;;;3.90;99.90;;;;;;5087267;28;20460;-72
2023/03/05 03:12:06;;;;;;;10.00;9.30;;;4.00;99.90;;;;;;5087898;28;20463;-71
2023/03/05 03:14:38;;;;;;;13.83;10.03;;;4.10;99.90;;;;;;5095308;28;20522;-72
2023/03/05 03:17:06;;;;;;;10.07;9.37;;;4.00;99.90;;;;;;5094117;28;20478;-70
2023/03/05 03:19:32;;;;;;;9.90;8.97;;;3.90;99.90;;;;;;5093816;28;20461;-71
2023/03/05 03:22:00;;;;;;;14.57;9.13;;;3.90;99.90;;;;;;5086648;28;20471;-73
2023/03/05 03:24:26;;;;;;;9.70;8.83;;;3.80;99.90;;;;;;5082090;28;20492;-71
2023/03/05 03:26:53;;;;;;;9.93;9.03;;;3.80;99.90;;;;;;5096503;28;20484;-72
2023/03/05 03:29:20;;;;;;;9.73;9.13;;;3.80;99.90;;;;;;5097933;28;20455;-72
2023/03/05 03:31:48;;;;;;;13.10;8.90;;;3.90;99.90;;;;;;5092339;28;20462;-72
2023/03/05 03:34:16;;;;;;;9.53;8.80;;;3.80;99.90;;;;;;5093838;28;20469;-73
2023/03/05 03:36:43;;;;;;;9.90;9.10;;;3.80;99.90;;;;;;5095854;28;20477;-72
2023/03/05 03:39:10;;;;;;;10.40;9.47;;;3.80;99.90;;;;;;5098955;28;20507;-71
2023/03/05 03:41:37;;;;;;;10.63;9.23;;;3.80;99.90;;;;;;5096655;28;21064;-72
2023/03/05 03:44:07;;;;;;;12.43;9.30;;;3.80;99.90;;;;;;5096894;28;20843;-72
2023/03/05 03:46:35;;;;;;;13.80;9.20;;;3.90;99.90;;;;;;5093941;28;20446;-72
2023/03/05 03:49:03;;;;;;;16.93;9.83;;;3.90;99.90;;;;;;5093977;28;20458;-73
2023/03/05 03:51:30;;;;;;;12.67;9.43;;;3.80;99.90;;;;;;5095917;28;20977;-71
2023/03/05 03:53:57;;;;;;;10.17;9.20;;;3.80;99.90;;;;;;5097362;28;20509;-71
2023/03/05 03:56:24;;;;;;;10.03;9.23;;;3.80;99.90;;;;;;5099028;28;20498;-71
2023/03/05 03:58:52;;;;;;;11.63;9.20;;;3.80;99.90;;;;;;5091975;28;20507;-72
2023/03/05 04:01:20;;;;;;;10.60;9.80;;;3.80;99.90;;;;;;5091940;28;20511;-71
2023/03/05 04:03:48;;;;;;;10.47;8.70;;;3.70;99.90;;;;;;5094164;28;20491;-72
2023/03/05 04:06:16;;;;;;;9.97;8.90;;;3.80;99.90;;;;;;5093312;28;20465;-73
2023/03/05 04:08:43;;;;;;;9.60;8.77;;;3.80;99.90;;;;;;5095891;28;20494;-72
2023/03/05 04:11:10;;;;;;;12.00;9.40;;;3.70;99.90;;;;;;5087684;28;20461;-73
2023/03/05 04:13:37;;;;;;;10.63;9.43;;;3.70;99.90;;;;;;5102661;28;20457;-70
2023/03/05 04:16:04;;;;;;;9.77;8.80;;;3.70;99.90;;;;;;5091414;28;20813;-73
2023/03/05 04:18:31;;;;;;;13.60;9.33;;;3.70;99.90;;;;;;5093454;28;20462;-72
2023/03/05 04:20:57;;;;;;;9.87;8.97;;;3.70;99.90;;;;;;5094233;28;20462;-72
2023/03/05 04:23:26;;;;;;;12.60;9.20;;;3.70;99.90;;;;;;5092101;28;20515;-72
2023/03/05 04:25:53;;;;;;;11.00;9.00;;;3.80;99.90;;;;;;5092287;28;20453;-72
2023/03/05 04:28:20;;;;;;;9.77;8.80;;;3.80;99.90;;;;;;5097965;28;20484;-72
2023/03/05 04:30:46;;;;;;;9.70;8.80;;;3.80;99.90;;;;;;5093565;28;20511;-72
2023/03/05 04:33:14;;;;;;;9.67;8.80;;;3.80;99.90;;;;;;5096869;28;20859;-73
2023/03/05 04:35:40;;;;;;;13.43;9.13;;;3.70;99.90;;;;;;5094414;28;20555;-73
2023/03/05 04:38:08;;;;;;;14.80;9.53;;;3.60;99.90;;;;;;5093231;28;20471;-71
2023/03/05 04:40:37;;;;;;;11.43;10.23;;;3.60;99.90;;;;;;5096129;28;20494;-71
2023/03/05 04:43:04;;;;;;;9.80;9.00;;;3.70;99.90;;;;;;5089909;28;20557;-70
2023/03/05 04:45:31;;;;;;;9.90;8.80;;;3.70;99.90;;;;;;5090622;28;20458;-71
2023/03/05 04:47:57;;;;;;;10.20;8.93;;;3.70;99.90;;;;;;5090387;28;20486;-71
2023/03/05 04:50:25;;;;;;;9.53;8.73;;;3.60;99.90;;;;;;5093734;28;20462;-71
2023/03/05 04:52:52;;;;;;;9.77;9.00;;;3.70;99.90;;;;;;5089764;28;20465;-70
2023/03/05 04:55:19;;;;;;;12.40;9.27;;;3.60;99.90;;;;;;5103163;28;20466;-71
2023/03/05 04:57:47;;;;;;;9.70;8.80;;;3.70;99.90;;;;;;5091799;28;20477;-70
2023/03/05 05:00:16;;;;;;;15.63;7.97;;;3.50;99.90;;;;;;5091858;28;20453;-72
2023/03/05 05:02:44;;;;;;;12.30;9.33;;;3.50;99.90;;;;;;5087631;28;20466;-72
2023/03/05 05:05:14;;;;;;;9.40;8.80;;;3.50;99.90;;;;;;5098455;28;21926;-71
2023/03/05 05:07:41;;;;;;;9.57;8.60;;;3.50;99.90;;;;;;5102460;28;20534;-71
2023/03/05 05:10:10;;;;;;;10.90;8.93;;;3.60;99.90;;;;;;5097818;28;20463;-71
2023/03/05 05:12:37;;;;;;;17.00;9.23;;;3.60;99.90;;;;;;5095469;28;20803;-72
2023/03/05 05:15:07;;;;;;;12.90;8.90;;;3.70;99.90;;;;;;5092737;28;20465;-72
2023/03/05 05:17:34;;;;;;;9.70;9.00;;;3.70;99.90;;;;;;5090922;28;20486;-71
2023/03/05 05:20:05;;;;;;;10.37;9.43;;;3.70;99.90;;;;;;5096452;28;20461;-69
2023/03/05 05:22:32;;;;;;;11.13;9.33;;;3.70;99.90;;;;;;5096836;28;20498;-73
2023/03/05 05:24:59;;;;;;;17.23;9.73;;;3.80;99.90;;;;;;5089753;28;20523;-73
2023/03/05 05:27:26;;;;;;;12.27;9.00;;;3.80;99.90;;;;;;5091276;28;21103;-73
2023/03/05 05:29:52;;;;;;;12.27;8.53;;;3.70;99.90;;;;;;5085633;28;20454;-70
2023/03/05 05:32:22;;;;;;;12.07;8.67;;;3.80;99.90;;;;;;5092996;28;20816;-71
2023/03/05 05:34:53;;;;;;;12.80;9.00;;;3.70;99.90;;;;;;5096193;28;20461;-70
2023/03/05 05:37:20;;;;;;;10.90;9.13;;;3.60;99.90;;;;;;5092433;28;20951;-70
2023/03/05 05:39:49;;;;;;;10.57;8.67;;;3.60;99.90;;;;;;5091285;28;20990;-70
2023/03/05 05:42:16;;;;;;;13.23;9.33;;;3.60;99.90;;;;;;5095827;28;20916;-72
2023/03/05 05:44:43;;;;;;;9.87;8.90;;;3.60;99.90;;;;;;5087463;28;20860;-70
2023/03/05 05:47:10;;;;;;;10.03;9.20;;;3.60;99.90;;;;;;5099095;28;20460;-71
2023/03/05 05:49:38;;;;;;;9.83;9.00;;;3.60;99.90;;;;;;5090180;28;20458;-70
2023/03/05 05:52:05;;;;;;;13.13;9.60;;;3.50;99.90;;;;;;5093395;28;20875;-73
2023/03/05 05:54:33;;;;;;;10.30;9.50;;;3.60;99.90;;;;;;5093274;28;20961;-72
2023/03/05 05:56:59;;;;;;;10.47;9.47;;;3.50;99.90;;;;;;5090995;28;20890;-71
2023/03/05 05:59:26;;;;;;;14.73;10.43;;;3.50;99.90;;;;;;5090413;28;20493;-72
2023/03/05 06:01:53;;;;;;;15.23;9.90;;;3.50;99.90;;;;;;5090038;28;20491;-73
2023/03/05 06:04:20;;;;;;;11.03;9.90;;;3.60;99.90;;;;;;5090829;28;20461;-72
2023/03/05 06:06:49;;;;;;;11.03;8.50;;;3.60;99.90;;;;;;5092244;28;20839;-71
2023/03/05 06:09:17;;;;;;;15.00;9.20;;;3.60;99.90;;;;;;5095768;28;20839;-70
2023/03/05 06:11:44;;;;;;;9.60;8.80;;;3.60;99.90;;;;;;5099426;28;20459;-72
2023/03/05 06:14:12;;;;;;;9.00;8.50;;;3.60;99.90;;;;;;5097786;28;20544;-72
2023/03/05 06:16:39;;;;;;;9.60;9.00;;;3.60;99.90;;;;;;5092525;28;20495;-70
2023/03/05 06:19:08;;;;;;;14.27;8.57;;;3.60;99.90;;;;;;5090834;28;20473;-72
2023/03/05 06:21:35;;;;;;;10.13;9.33;;;3.60;99.90;;;;;;5088126;28;20459;-71
2023/03/05 06:24:04;;;;;;;11.00;10.00;;;3.60;99.90;;;;;;5089985;28;20877;-71
2023/03/05 06:26:31;;;;;;;11.00;10.00;;;3.60;99.90;;;;;;5087612;28;20468;-71
2023/03/05 06:28:58;;;;;;;12.07;11.10;;;3.60;99.90;;;;;;5095923;28;20469;-70
2023/03/05 06:31:27;;;;;;;11.10;9.03;;;3.50;99.90;;;;;;5090634;28;20562;-71
2023/03/05 06:33:55;;;;;;;10.07;9.43;;;3.40;99.90;;;;;;5092347;28;20501;-72
2023/03/05 06:36:24;;;;;;;9.70;8.90;;;3.50;99.90;;;;;;5089655;28;20480;-70
2023/03/05 06:38:52;;;;;;;11.73;10.63;;;3.50;99.90;;;;;;5100344;28;20619;-72
2023/03/05 06:41:22;;;;;;;12.80;9.83;;;3.60;99.90;;;;;;5088015;28;20928;-72
2023/03/05 06:43:50;;;;;;;9.90;9.10;;;3.60;99.90;;;;;;5089406;28;20474;-73
2023/03/05 06:46:19;;;;;;;10.40;9.50;;;3.70;99.90;;;;;;5089489;28;20468;-72
2023/03/05 06:48:47;;;;;;;10.03;9.33;;;3.70;99.90;;;;;;5092829;28;20890;-70
2023/03/05 06:51:15;;;;;;;9.27;8.60;;;3.60;99.90;;;;;;5087514;28;20896;-72
2023/03/05 06:53:43;;;;;;;12.23;8.30;;;3.60;99.90;;;;;;5090112;28;20464;-72
2023/03/05 06:56:12;;;;;;;10.60;8.90;;;3.60;99.90;;;;;;5094660;28;20955;-71
2023/03/05 06:58:41;;;;;;;10.50;9.20;;;3.60;99.90;;;;;;5090130;28;20470;-71
2023/03/05 07:01:08;;;;;;;11.80;8.60;;;3.70;99.90;;;;;;5091837;28;20464;-72
2023/03/05 07:03:36;;;;;;;12.53;9.00;;;3.70;99.90;;;;;;5097391;28;20462;-73
2023/03/05 07:06:04;;;;;;;9.57;8.77;;;3.60;99.90;;;;;;5091252;28;20883;-71
2023/03/05 07:08:31;;;;;;;11.50;9.83;;;3.70;99.90;;;;;;5091360;28;20564;-74
2023/03/05 07:10:59;;;;;;;11.70;8.93;;;3.80;99.90;;;;;;5095569;28;20462;-73
2023/03/05 07:13:27;;;;;;;12.03;10.10;;;3.90;99.90;;;;;;5092578;28;20473;-74
2023/03/05 07:15:57;;;;;;;11.50;9.47;;;3.90;99.90;;;;;;5094600;28;20464;-73
2023/03/05 07:18:24;;;;;;;11.43;10.37;;;3.90;99.90;;;;;;5099776;28;20458;-72
2023/03/05 07:20:51;;;;;;;13.30;10.03;;;4.00;99.90;;;;;;5096179;28;20466;-72
2023/03/05 07:23:17;;;;;;;12.67;9.30;;;4.00;99.90;;;;;;5097771;28;20555;-71
2023/03/05 07:25:44;;;;;;;14.33;9.43;;;4.10;99.90;;;;;;5096116;28;20460;-72
2023/03/05 07:28:11;;;;;;;15.60;10.00;;;4.20;99.90;;;;;;5095314;28;20641;-71
2023/03/05 07:30:38;;;;;;;10.73;9.70;;;4.10;99.90;;;;;;5099450;28;20468;-74
2023/03/05 07:33:06;;;;;;;11.33;9.83;;;4.20;99.90;;;;;;5093449;28;20473;-71
2023/03/05 07:35:33;;;;;;;10.10;9.13;;;4.20;99.90;;;;;;5096697;28;20826;-71
2023/03/05 07:38:02;;;;;;;18.23;10.60;;;4.30;99.90;;;;;;5091785;28;20839;-75
2023/03/05 07:40:28;;;;;;;11.93;10.73;;;4.30;99.90;;;;;;5095005;28;20459;-73
2023/03/05 07:42:55;;;;;;;11.97;10.47;;;4.40;99.90;;;;;;5091930;28;20531;-73
2023/03/05 07:45:22;;;;;;;15.10;10.60;;;4.50;99.90;;;;;;5097368;28;20475;-73
2023/03/05 07:47:49;;;;;;;15.40;11.93;;;4.50;99.90;;;;;;5094143;28;20495;-72
2023/03/05 07:50:18;;;;;;;13.30;11.40;;;4.50;99.90;;;;;;5098582;28;20461;-72
2023/03/05 07:52:47;;;;;;;14.30;10.93;;;4.60;99.90;;;;;;5095504;28;20473;-73
2023/03/05 07:55:14;;;;;;;16.53;11.70;;;4.60;99.90;;;;;;5097865;28;20453;-73
2023/03/05 07:57:41;;;;;;;13.40;11.50;;;4.70;99.90;;;;;;5097621;28;20466;-73
2023/03/05 08:00:09;;;;;;;14.03;10.30;;;4.80;99.90;;;;;;5093177;28;20463;-72
2023/03/05 08:02:36;;;;;;;25.83;11.10;;;4.70;99.90;;;;;;5091942;28;20495;-73
2023/03/05 08:05:03;;;;;;;12.43;10.73;;;4.80;99.90;;;;;;5093898;28;20827;-72
2023/03/05 08:07:32;;;;;;;14.40;10.67;;;4.90;99.90;;;;;;5095803;28;21486;-74
2023/03/05 08:09:59;;;;;;;13.03;11.60;;;5.00;99.90;;;;;;5104716;28;20507;-71
2023/03/05 08:12:26;;;;;;;12.33;11.33;;;5.00;99.90;;;;;;5090370;28;20464;-74
2023/03/05 08:14:53;;;;;;;13.43;11.60;;;5.00;99.90;;;;;;5093119;28;20465;-72
2023/03/05 08:17:19;;;;;;;15.77;11.60;;;5.00;99.90;;;;;;5092488;28;20477;-73
2023/03/05 08:19:47;;;;;;;13.07;11.13;;;5.10;99.90;;;;;;5093795;28;20542;-73
2023/03/05 08:22:14;;;;;;;14.93;11.93;;;5.10;99.90;;;;;;5099710;28;20464;-73
2023/03/05 08:24:43;;;;;;;14.10;11.77;;;5.30;99.90;;;;;;5088510;28;20828;-73
2023/03/05 08:27:10;;;;;;;17.67;11.77;;;5.30;99.90;;;;;;5091659;28;20966;-72
2023/03/05 08:29:37;;;;;;;14.00;12.67;;;5.50;99.90;;;;;;5093601;28;20633;-72
2023/03/05 08:32:04;;;;;;;14.30;13.10;;;5.50;99.90;;;;;;5092656;28;20464;-72
2023/03/05 08:34:31;;;;;;;18.80;12.47;;;5.60;99.90;;;;;;5091687;28;20498;-73
2023/03/05 08:36:58;;;;;;;14.20;12.70;;;5.70;99.90;;;;;;5089275;28;20812;-73
2023/03/05 08:39:25;;;;;;;13.80;12.53;;;5.60;99.90;;;;;;5091081;28;20468;-71
2023/03/05 08:41:54;;;;;;;15.10;11.53;;;5.60;99.90;;;;;;5098924;28;20487;-74
2023/03/05 08:44:21;;;;;;;14.20;12.90;;;5.70;99.90;;;;;;5097328;28;20892;-72
2023/03/05 08:46:48;;;;;;;22.17;12.87;;;5.70;99.90;;;;;;5087568;28;20481;-72
2023/03/05 08:49:15;;;;;;;14.97;13.47;;;5.70;99.90;;;;;;5086943;28;20500;-74
2023/03/05 08:51:42;;;;;;;20.03;13.10;;;5.50;99.90;;;;;;5089332;28;20519;-73
2023/03/05 08:54:09;;;;;;;13.53;12.23;;;5.50;99.90;;;;;;5088045;28;20466;-73
2023/03/05 08:56:37;;;;;;;14.03;12.70;;;5.60;99.90;;;;;;5093991;28;20461;-71
2023/03/05 08:59:05;;;;;;;17.57;12.53;;;5.70;99.90;;;;;;5087222;28;20454;-72
2023/03/05 09:01:32;;;;;;;13.03;11.93;;;5.80;99.90;;;;;;5094069;28;20494;-74
2023/03/05 09:03:59;;;;;;;16.40;13.07;;;5.50;99.90;;;;;;5092734;28;20464;-72
2023/03/05 09:06:28;;;;;;;16.53;13.63;;;5.60;99.90;;;;;;5090985;28;21048;-71
2023/03/05 09:08:56;;;;;;;18.90;16.90;;;5.60;99.90;;;;;;5091065;28;20492;-73
2023/03/05 09:11:23;;;;;;;17.33;15.03;;;5.60;99.90;;;;;;5095506;28;20462;-73
2023/03/05 09:13:50;;;;;;;19.60;17.30;;;5.50;99.90;;;;;;5093655;28;20466;-72
2023/03/05 09:16:19;;;;;;;16.67;15.07;;;5.60;99.90;;;;;;5094986;28;21019;-73
2023/03/05 09:18:47;;;;;;;18.10;16.10;;;5.50;99.90;;;;;;5091901;28;20493;-73
2023/03/05 09:21:17;;;;;;;18.10;16.07;;;5.40;99.90;;;;;;5095495;28;20469;-72
2023/03/05 09:23:45;;;;;;;19.27;17.33;;;5.40;99.90;;;;;;5084734;28;20477;-71
2023/03/05 09:26:14;;;;;;;19.50;17.63;;;5.10;99.90;;;;;;5087645;28;20468;-70
2023/03/05 09:28:41;;;;;;;20.73;17.90;;;5.10;99.90;;;;;;5093872;28;21338;-73
2023/03/05 09:31:09;;;;;;;17.90;16.20;;;5.00;99.90;;;;;;5091338;28;20459;-69
2023/03/05 09:33:39;;;;;;;18.70;15.60;;;5.00;99.90;;;;;;5090025;28;20463;-70
2023/03/05 09:36:16;;;;;;;17.47;14.53;;;5.20;99.90;;;;;;5088376;28;20468;-73
2023/03/05 09:38:42;;;;;;;17.43;14.20;;;5.20;99.90;;;;;;5093361;28;20453;-72
2023/03/05 09:41:18;;;;;;;14.70;13.40;;;5.00;99.90;;;;;;5092178;28;20458;-70
2023/03/05 09:43:52;;;;;;;23.37;13.73;;;5.10;99.90;;;;;;5082557;28;20467;-70
2023/03/05 09:46:34;;;;;;;16.87;14.67;;;5.00;99.90;;;;;;5090238;28;20468;-73
2023/03/05 09:49:11;;;;;;;21.83;13.97;;;4.90;99.90;;;;;;5085780;28;20499;-72
2023/03/05 09:51:40;;;;;;;16.70;13.83;;;4.90;99.90;;;;;;5089129;28;20472;-71
2023/03/05 09:54:14;;;;;;;13.97;12.67;;;4.90;99.90;;;;;;5090915;28;20466;-73
2023/03/05 09:56:45;;;;;;;13.80;12.70;;;4.90;99.90;;;;;;5089450;28;20809;-70
2023/03/05 09:59:20;;;;;;;13.97;12.77;;;5.00;99.90;;;;;;5091252;28;20473;-73
2023/03/05 10:01:48;;;;;;;16.27;14.57;;;5.00;99.90;;;;;;5093382;28;20465;-73
2023/03/05 10:04:21;;;;;;;16.20;14.60;;;5.10;99.90;;;;;;5088354;28;20464;-71
2023/03/05 10:06:53;;;;;;;16.53;15.03;;;5.30;99.90;;;;;;5087653;28;21193;-72
2023/03/05 10:09:35;;;;;;;16.13;14.93;;;5.50;99.90;;;;;;5086885;28;20477;-70
2023/03/05 10:12:05;;;;;;;16.57;15.00;;;5.50;99.90;;;;;;5091608;28;20495;-69
2023/03/05 10:14:34;;;;;;;18.33;15.70;;;5.60;99.90;;;;;;5089314;28;21076;-72
2023/03/05 10:17:31;;;;;;;18.00;16.40;;;5.70;99.90;;;;;;5096091;28;21027;-70
2023/03/05 10:20:15;;;;;;;19.97;17.33;;;5.80;99.90;;;;;;5093556;28;20472;-71
2023/03/05 10:23:02;;;;;;;17.93;16.43;;;6.00;99.90;;;;;;5091588;28;20936;-68
2023/03/05 10:25:43;;;;;;;22.07;17.00;;;6.00;99.90;;;;;;5088032;28;20961;-72
2023/03/05 10:28:16;;;;;;;17.27;15.77;;;6.00;99.90;;;;;;5074382;28;20536;-72
2023/03/05 10:31:00;;;;;;;18.37;15.30;;;6.00;99.90;;;;;;5082498;28;20485;-70
2023/03/05 10:33:34;;;;;;;20.93;17.10;;;5.80;99.90;;;;;;5084331;28;21354;-73
2023/03/05 10:36:27;;;;;;;19.77;18.07;;;5.60;99.90;;;;;;5087144;28;20465;-73
2023/03/05 10:39:08;;;;;;;18.53;16.43;;;5.50;99.90;;;;;;5091261;28;20860;-71
2023/03/05 10:41:42;;;;;;;17.83;16.43;;;5.50;99.90;;;;;;5090362;28;20735;-71
2023/03/05 10:44:16;;;;;;;18.63;17.00;;;5.40;99.90;;;;;;5089060;28;20567;-70
2023/03/05 10:46:45;;;;;;;20.20;17.13;;;5.40;99.90;;;;;;5086000;28;21017;-70
2023/03/05 10:49:19;;;;;;;20.93;17.70;;;5.60;99.90;;;;;;5083162;28;20498;-73
2023/03/05 10:51:53;;;;;;;20.40;18.33;;;5.80;99.90;;;;;;5090198;28;20476;-73
2023/03/05 10:54:25;;;;;;;20.30;18.40;;;6.10;99.90;;;;;;5086392;28;20963;-72
2023/03/05 10:57:03;;;;;;;22.83;18.70;;;6.30;99.90;;;;;;5088269;28;21014;-70
2023/03/05 10:59:32;;;;;;;17.17;15.83;;;6.50;99.90;;;;;;5092062;28;20473;-72
2023/03/05 11:02:04;;;;;;;18.27;16.87;;;6.80;99.90;;;;;;5088988;28;20462;-72
2023/03/05 11:04:35;;;;;;;18.90;17.27;;;6.80;99.90;;;;;;5084882;28;20945;-68
2023/03/05 11:07:28;;;;;;;18.90;17.27;;;6.70;99.90;;;;;;5086761;28;20992;-70
2023/03/05 11:10:06;;;;;;;19.40;17.70;;;6.90;99.90;;;;;;5088777;28;21652;-71
2023/03/05 11:12:34;;;;;;;20.60;17.40;;;6.80;99.90;;;;;;5089275;28;20799;-73
2023/03/05 11:15:21;;;;;;;18.57;16.90;;;6.60;99.90;;;;;;5089215;28;20466;-68
2023/03/05 11:18:05;;;;;;;16.33;15.23;;;6.50;99.90;;;;;;5082940;28;20724;-73
2023/03/05 11:20:34;;;;;;;17.53;16.13;;;6.40;99.90;;;;;;5085092;28;20473;-73
2023/03/05 11:23:13;;;;;;;17.23;15.93;;;6.20;99.90;;;;;;5086779;28;20462;-71
2023/03/05 11:26:00;;;;;;;18.30;16.80;;;5.90;99.90;;;;;;5087692;28;20462;-73
2023/03/05 11:28:29;;;;;;;18.77;17.00;;;5.80;99.90;;;;;;5086152;28;20713;-71
2023/03/05 11:31:19;;;;;;;17.83;16.33;;;5.80;99.90;;;;;;5084452;28;20477;-72
2023/03/05 11:33:57;;;;;;;18.33;16.87;;;5.90;99.90;;;;;;5089247;28;20511;-72
2023/03/05 11:36:27;;;;;;;18.17;16.63;;;5.90;99.90;;;;;;5085563;28;20464;-69
2023/03/05 11:38:57;;;;;;;18.03;16.53;;;5.90;99.90;;;;;;5083688;28;20470;-70
2023/03/05 11:41:34;;;;;;;18.70;17.07;;;6.20;99.90;;;;;;5083125;28;20469;-74
2023/03/05 11:44:04;;;;;;;20.57;18.67;;;6.30;99.90;;;;;;5083371;28;20461;-69
2023/03/05 11:46:43;;;;;;;22.70;20.70;;;6.10;99.90;;;;;;5085746;28;20764;-72
2023/03/05 11:49:16;;;;;;;19.53;18.00;;;6.20;99.90;;;;;;5089851;28;20461;-73
2023/03/05 11:51:48;;;;;;;18.93;17.30;;;6.20;99.90;;;;;;5093577;28;20833;-68
2023/03/05 11:54:23;;;;;;;20.50;18.60;;;6.10;99.90;;;;;;5091679;28;20548;-71
2023/03/05 11:56:52;;;;;;;21.00;19.27;;;5.80;99.90;;;;;;5090960;28;20517;-72
2023/03/05 11:59:24;;;;;;;26.17;24.10;;;5.60;99.90;;;;;;5091199;28;20473;-71
2023/03/05 12:01:54;;;;;;;27.20;24.60;;;5.50;99.90;;;;;;5093090;28;20519;-70
2023/03/05 12:04:22;;;;;;;27.40;25.20;;;5.60;99.90;;;;;;5094774;28;20465;-72
2023/03/05 12:06:51;;;;;;;26.87;24.67;;;5.90;99.90;;;;;;5097953;28;20808;-72
2023/03/05 12:09:27;;;;;;;28.40;26.10;;;6.10;99.90;;;;;;5091608;28;20795;-71
2023/03/05 12:12:02;;;;;;;27.10;24.90;;;6.10;99.90;;;;;;5087984;28;20453;-71
2023/03/05 12:14:38;;;;;;;24.93;22.90;;;6.20;99.90;;;;;;5088592;28;21026;-73
2023/03/05 12:17:10;;;;;;;25.00;22.93;;;6.30;99.90;;;;;;5090571;28;20481;-70
2023/03/05 12:19:46;;;;;;;25.57;23.60;;;6.50;99.90;;;;;;5090883;28;20464;-72
2023/03/05 12:22:19;;;;;;;23.10;21.13;;;6.50;99.90;;;;;;5094917;28;20457;-72
2023/03/05 12:24:47;;;;;;;23.70;21.70;;;6.50;99.90;;;;;;5085801;28;20467;-71
2023/03/05 12:27:31;;;;;;;22.43;20.73;;;6.50;99.90;;;;;;5094268;28;20855;-71
2023/03/05 12:30:00;;;;;;;22.10;20.50;;;6.50;99.90;;;;;;5083487;28;20588;-71
2023/03/05 12:33:00;;;;;;;21.27;19.27;;;6.40;99.90;;;;;;5087700;28;20461;-72
2023/03/05 12:35:34;;;;;;;20.90;19.10;;;6.20;99.90;;;;;;5091316;28;20461;-69
2023/03/05 12:38:30;;;;;;;20.80;19.20;;;6.10;99.90;;;;;;5090526;28;20473;-69
2023/03/05 12:41:33;;;;;;;17.60;16.50;;;6.20;99.90;;;;;;5089779;28;20982;-72
2023/03/05 12:44:18;;;;;;;16.43;15.13;;;6.30;99.90;;;;;;5088508;28;20468;-71
2023/03/05 12:46:47;;;;;;;15.43;14.30;;;6.30;99.90;;;;;;5091854;28;20459;-71
2023/03/05 12:49:37;;;;;;;18.50;14.23;;;6.40;99.90;;;;;;5094876;28;20457;-73
2023/03/05 12:52:13;;;;;;;44.57;15.60;;;6.60;99.90;;;;;;5088257;28;20464;-73
2023/03/05 12:54:41;;;;;;;22.23;14.93;;;6.70;99.90;;;;;;5096879;28;20460;-69